sensor_id;sensor_type;location;lat;lon;timestamp;pressure;altitude;pressure_sealevel;temperature;humidity
75895;BME280;64573;50.328;15.014;2023-04-03T00:00:39;99612.59;;;3.13;77.46
75895;BME280;64573;50.328;15.014;2023-04-03T00:03:05;99614.16;;;3.15;76.36
75895;BME280;64573;50.328;15.014;2023-04-03T00:05:30;99606.47;;;3.12;76.99
75895;BME280;64573;50.328;15.014;2023-04-03T00:07:55;99614.13;;;3.04;76.88
75895;BME280;64573;50.328;15.014;2023-04-03T00:10:21;99604.50;;;3.03;76.19
75895;BME280;64573;50.328;15.014;2023-04-03T00:12:46;99623.41;;;3.10;74.72
75895;BME280;64573;50.328;15.014;2023-04-03T00:15:12;99622.56;;;3.09;71.55
75895;BME280;64573;50.328;15.014;2023-04-03T00:17:37;99621.00;;;3.07;69.42
75895;BME280;64573;50.328;15.014;2023-04-03T00:20:03;99611.72;;;3.01;68.93
75895;BME280;64573;50.328;15.014;2023-04-03T00:22:30;99602.44;;;2.95;66.65
75895;BME280;64573;50.328;15.014;2023-04-03T00:24:55;99609.16;;;2.88;65.06
75895;BME280;64573;50.328;15.014;2023-04-03T00:27:21;99620.94;;;2.73;66.25
75895;BME280;64573;50.328;15.014;2023-04-03T00:29:46;99627.31;;;2.70;66.52
75895;BME280;64573;50.328;15.014;2023-04-03T00:32:12;99638.09;;;2.56;67.55
75895;BME280;64573;50.328;15.014;2023-04-03T00:34:37;99639.34;;;2.39;65.67
75895;BME280;64573;50.328;15.014;2023-04-03T00:37:02;99633.66;;;2.33;64.95
75895;BME280;64573;50.328;15.014;2023-04-03T00:39:28;99631.91;;;2.20;65.58
75895;BME280;64573;50.328;15.014;2023-04-03T00:41:53;99642.00;;;2.03;64.87
75895;BME280;64573;50.328;15.014;2023-04-03T00:47:09;99652.34;;;1.82;62.95
75895;BME280;64573;50.328;15.014;2023-04-03T00:49:36;99645.81;;;1.75;63.42
75895;BME280;64573;50.328;15.014;2023-04-03T00:52:02;99647.63;;;1.49;66.30
75895;BME280;64573;50.328;15.014;2023-04-03T00:54:28;99652.19;;;1.47;66.02
75895;BME280;64573;50.328;15.014;2023-04-03T00:56:56;99642.13;;;1.52;64.90
75895;BME280;64573;50.328;15.014;2023-04-03T00:59:27;99647.44;;;1.39;66.34
75895;BME280;64573;50.328;15.014;2023-04-03T01:01:56;99654.84;;;1.47;64.35
75895;BME280;64573;50.328;15.014;2023-04-03T01:04:33;99649.56;;;1.47;64.14
75895;BME280;64573;50.328;15.014;2023-04-03T01:07:06;99644.56;;;1.29;65.81
75895;BME280;64573;50.328;15.014;2023-04-03T01:09:34;99642.78;;;1.04;68.16
75895;BME280;64573;50.328;15.014;2023-04-03T01:12:21;99639.59;;;0.99;68.68
75895;BME280;64573;50.328;15.014;2023-04-03T01:14:50;99651.31;;;0.82;69.93
75895;BME280;64573;50.328;15.014;2023-04-03T01:17:34;99659.75;;;0.75;70.69
75895;BME280;64573;50.328;15.014;2023-04-03T01:25:34;99663.81;;;0.53;72.50
75895;BME280;64573;50.328;15.014;2023-04-03T01:28:00;99660.06;;;0.43;73.42
75895;BME280;64573;50.328;15.014;2023-04-03T01:30:31;99658.16;;;0.33;74.25
75895;BME280;64573;50.328;15.014;2023-04-03T01:32:58;99664.66;;;0.27;74.53
75895;BME280;64573;50.328;15.014;2023-04-03T01:35:23;99670.53;;;0.18;75.51
75895;BME280;64573;50.328;15.014;2023-04-03T01:37:48;99671.41;;;0.04;76.03
75895;BME280;64573;50.328;15.014;2023-04-03T01:40:14;99675.22;;;0.00;75.97
75895;BME280;64573;50.328;15.014;2023-04-03T01:42:40;99668.31;;;-0.03;75.91
75895;BME280;64573;50.328;15.014;2023-04-03T01:45:05;99664.94;;;-0.05;75.67
75895;BME280;64573;50.328;15.014;2023-04-03T01:47:31;99666.75;;;-0.05;75.63
75895;BME280;64573;50.328;15.014;2023-04-03T01:49:56;99668.72;;;-0.09;75.49
75895;BME280;64573;50.328;15.014;2023-04-03T01:52:22;99677.22;;;-0.18;75.14
75895;BME280;64573;50.328;15.014;2023-04-03T01:54:47;99676.56;;;-0.21;75.26
75895;BME280;64573;50.328;15.014;2023-04-03T01:57:12;99680.31;;;-0.25;75.11
75895;BME280;64573;50.328;15.014;2023-04-03T01:59:40;99678.31;;;-0.22;74.85
75895;BME280;64573;50.328;15.014;2023-04-03T02:02:05;99682.00;;;-0.10;72.87
75895;BME280;64573;50.328;15.014;2023-04-03T02:04:31;99680.59;;;-0.16;72.50
75895;BME280;64573;50.328;15.014;2023-04-03T02:06:56;99683.22;;;-0.16;72.21
75895;BME280;64573;50.328;15.014;2023-04-03T02:09:21;99685.59;;;-0.25;72.57
75895;BME280;64573;50.328;15.014;2023-04-03T02:11:47;99681.84;;;-0.21;72.07
75895;BME280;64573;50.328;15.014;2023-04-03T02:14:12;99682.69;;;-0.35;72.50
75895;BME280;64573;50.328;15.014;2023-04-03T02:16:37;99686.56;;;-0.41;72.52
75895;BME280;64573;50.328;15.014;2023-04-03T02:19:03;99690.59;;;-0.49;73.39
75895;BME280;64573;50.328;15.014;2023-04-03T02:21:28;99694.19;;;-0.50;73.08
75895;BME280;64573;50.328;15.014;2023-04-03T02:23:53;99690.69;;;-0.51;72.90
75895;BME280;64573;50.328;15.014;2023-04-03T02:26:19;99689.94;;;-0.53;72.61
75895;BME280;64573;50.328;15.014;2023-04-03T02:28:45;99694.34;;;-0.53;73.21
75895;BME280;64573;50.328;15.014;2023-04-03T02:31:10;99701.78;;;-0.60;73.05
75895;BME280;64573;50.328;15.014;2023-04-03T02:33:36;99697.91;;;-0.69;73.10
75895;BME280;64573;50.328;15.014;2023-04-03T02:36:04;99697.72;;;-0.66;73.26
75895;BME280;64573;50.328;15.014;2023-04-03T02:38:29;99690.59;;;-0.64;72.51
75895;BME280;64573;50.328;15.014;2023-04-03T02:41:03;99690.13;;;-0.70;72.78
75895;BME280;64573;50.328;15.014;2023-04-03T02:43:28;99690.47;;;-0.76;73.65
75895;BME280;64573;50.328;15.014;2023-04-03T02:45:54;99693.03;;;-0.75;74.72
75895;BME280;64573;50.328;15.014;2023-04-03T02:48:20;99699.78;;;-0.85;73.79
75895;BME280;64573;50.328;15.014;2023-04-03T02:50:45;99703.38;;;-0.72;73.61
75895;BME280;64573;50.328;15.014;2023-04-03T02:53:10;99707.31;;;-0.79;73.43
75895;BME280;64573;50.328;15.014;2023-04-03T02:55:36;99707.03;;;-0.74;73.58
75895;BME280;64573;50.328;15.014;2023-04-03T02:58:01;99717.03;;;-0.65;72.20
75895;BME280;64573;50.328;15.014;2023-04-03T03:00:27;99704.97;;;-0.84;72.40
75895;BME280;64573;50.328;15.014;2023-04-03T03:02:52;99707.31;;;-0.79;73.48
75895;BME280;64573;50.328;15.014;2023-04-03T03:05:20;99724.53;;;-0.73;72.75
75895;BME280;64573;50.328;15.014;2023-04-03T03:07:45;99717.56;;;-0.74;72.86
75895;BME280;64573;50.328;15.014;2023-04-03T03:10:11;99723.72;;;-1.04;74.81
75895;BME280;64573;50.328;15.014;2023-04-03T03:12:36;99722.22;;;-1.24;75.49
75895;BME280;64573;50.328;15.014;2023-04-03T03:15:01;99723.94;;;-1.23;76.77
75895;BME280;64573;50.328;15.014;2023-04-03T03:17:27;99724.41;;;-1.30;76.40
75895;BME280;64573;50.328;15.014;2023-04-03T03:19:52;99731.03;;;-1.09;75.98
75895;BME280;64573;50.328;15.014;2023-04-03T03:22:18;99724.00;;;-1.08;75.62
75895;BME280;64573;50.328;15.014;2023-04-03T03:24:43;99727.03;;;-1.30;77.26
75895;BME280;64573;50.328;15.014;2023-04-03T03:27:09;99721.03;;;-1.18;76.53
75895;BME280;64573;50.328;15.014;2023-04-03T03:29:34;99717.81;;;-1.23;77.61
75895;BME280;64573;50.328;15.014;2023-04-03T03:32:00;99720.44;;;-1.23;76.70
75895;BME280;64573;50.328;15.014;2023-04-03T03:34:25;99714.91;;;-1.49;78.97
75895;BME280;64573;50.328;15.014;2023-04-03T03:36:50;99710.63;;;-1.65;80.13
75895;BME280;64573;50.328;15.014;2023-04-03T03:39:16;99710.88;;;-1.86;80.90
75895;BME280;64573;50.328;15.014;2023-04-03T03:41:41;99714.34;;;-1.85;81.97
75895;BME280;64573;50.328;15.014;2023-04-03T03:44:06;99720.63;;;-1.72;81.36
75895;BME280;64573;50.328;15.014;2023-04-03T03:46:32;99718.31;;;-1.62;80.06
75895;BME280;64573;50.328;15.014;2023-04-03T03:48:57;99728.59;;;-1.58;80.11
75895;BME280;64573;50.328;15.014;2023-04-03T03:51:22;99726.81;;;-1.57;79.88
75895;BME280;64573;50.328;15.014;2023-04-03T03:53:48;99730.59;;;-1.47;78.71
75895;BME280;64573;50.328;15.014;2023-04-03T03:56:13;99729.66;;;-1.46;78.49
75895;BME280;64573;50.328;15.014;2023-04-03T03:58:38;99724.28;;;-1.59;79.35
75895;BME280;64573;50.328;15.014;2023-04-03T04:01:05;99727.13;;;-1.48;78.56
75895;BME280;64573;50.328;15.014;2023-04-03T04:03:30;99723.56;;;-1.62;79.19
75895;BME280;64573;50.328;15.014;2023-04-03T04:05:56;99718.31;;;-1.62;79.84
75895;BME280;64573;50.328;15.014;2023-04-03T04:08:22;99714.09;;;-1.65;79.76
75895;BME280;64573;50.328;15.014;2023-04-03T04:10:47;99724.50;;;-1.48;78.66
75895;BME280;64573;50.328;15.014;2023-04-03T04:13:13;99731.44;;;-1.47;78.24
75895;BME280;64573;50.328;15.014;2023-04-03T04:15:38;99722.38;;;-1.57;79.05
75895;BME280;64573;50.328;15.014;2023-04-03T04:18:03;99735.63;;;-1.43;77.39
75895;BME280;64573;50.328;15.014;2023-04-03T04:22:54;99732.41;;;-1.18;75.83
75895;BME280;64573;50.328;15.014;2023-04-03T04:25:20;99747.53;;;-1.21;75.12
75895;BME280;64573;50.328;15.014;2023-04-03T04:27:45;99748.69;;;-1.11;74.33
75895;BME280;64573;50.328;15.014;2023-04-03T04:30:11;99746.28;;;-1.46;77.35
75895;BME280;64573;50.328;15.014;2023-04-03T04:32:37;99755.53;;;-1.39;77.56
75895;BME280;64573;50.328;15.014;2023-04-03T04:35:03;99763.19;;;-1.34;76.91
75895;BME280;64573;50.328;15.014;2023-04-03T04:37:29;99755.69;;;-1.26;75.93
75895;BME280;64573;50.328;15.014;2023-04-03T04:39:54;99762.94;;;-1.29;76.61
75895;BME280;64573;50.328;15.014;2023-04-03T04:42:20;99771.59;;;-1.43;77.05
75895;BME280;64573;50.328;15.014;2023-04-03T04:44:45;99778.22;;;-1.52;78.58
75895;BME280;64573;50.328;15.014;2023-04-03T04:47:11;99775.81;;;-1.41;77.61
75895;BME280;64573;50.328;15.014;2023-04-03T04:49:36;99772.78;;;-1.49;78.37
75895;BME280;64573;50.328;15.014;2023-04-03T04:52:02;99770.91;;;-1.62;78.63
75895;BME280;64573;50.328;15.014;2023-04-03T04:54:27;99784.06;;;-1.78;78.84
75895;BME280;64573;50.328;15.014;2023-04-03T04:56:52;99781.88;;;-1.70;79.79
75895;BME280;64573;50.328;15.014;2023-04-03T04:59:18;99772.63;;;-1.61;79.43
75895;BME280;64573;50.328;15.014;2023-04-03T05:01:43;99784.91;;;-1.30;78.57
75895;BME280;64573;50.328;15.014;2023-04-03T05:04:08;99781.91;;;-1.24;78.58
75895;BME280;64573;50.328;15.014;2023-04-03T05:06:34;99774.38;;;-1.15;78.26
75895;BME280;64573;50.328;15.014;2023-04-03T05:09:00;99774.44;;;-1.16;78.29
75895;BME280;64573;50.328;15.014;2023-04-03T05:11:26;99783.19;;;-1.16;77.55
75895;BME280;64573;50.328;15.014;2023-04-03T05:13:51;99775.78;;;-1.09;76.92
75895;BME280;64573;50.328;15.014;2023-04-03T05:16:16;99786.91;;;-1.04;78.66
75895;BME280;64573;50.328;15.014;2023-04-03T05:18:42;99801.00;;;-1.05;78.33
75895;BME280;64573;50.328;15.014;2023-04-03T05:21:07;99792.97;;;-0.88;77.38
75895;BME280;64573;50.328;15.014;2023-04-03T05:23:33;99807.47;;;-0.80;76.32
75895;BME280;64573;50.328;15.014;2023-04-03T05:25:58;99803.19;;;-0.67;76.01
75895;BME280;64573;50.328;15.014;2023-04-03T05:28:23;99809.31;;;-0.67;75.97
75895;BME280;64573;50.328;15.014;2023-04-03T05:30:56;99810.63;;;-0.60;75.85
75895;BME280;64573;50.328;15.014;2023-04-03T05:33:22;99802.63;;;-0.58;75.32
75895;BME280;64573;50.328;15.014;2023-04-03T05:35:48;99817.91;;;-0.49;74.75
75895;BME280;64573;50.328;15.014;2023-04-03T05:38:13;99804.41;;;-0.29;74.13
75895;BME280;64573;50.328;15.014;2023-04-03T05:40:39;99807.41;;;-0.35;74.33
75895;BME280;64573;50.328;15.014;2023-04-03T05:43:04;99816.56;;;-0.12;74.95
75895;BME280;64573;50.328;15.014;2023-04-03T05:45:30;99824.44;;;-0.40;73.93
75895;BME280;64573;50.328;15.014;2023-04-03T05:47:55;99836.94;;;-0.30;73.18
75895;BME280;64573;50.328;15.014;2023-04-03T05:50:21;99825.94;;;-0.22;74.26
75895;BME280;64573;50.328;15.014;2023-04-03T05:52:48;99839.06;;;-0.20;73.97
75895;BME280;64573;50.328;15.014;2023-04-03T05:55:14;99848.00;;;0.06;72.65
75895;BME280;64573;50.328;15.014;2023-04-03T05:57:39;99834.44;;;0.26;71.67
75895;BME280;64573;50.328;15.014;2023-04-03T06:00:08;99841.50;;;0.40;70.86
75895;BME280;64573;50.328;15.014;2023-04-03T06:02:35;99828.47;;;0.92;68.27
75895;BME280;64573;50.328;15.014;2023-04-03T06:05:01;99840.03;;;0.77;68.18
75895;BME280;64573;50.328;15.014;2023-04-03T06:07:26;99849.44;;;0.95;68.28
75895;BME280;64573;50.328;15.014;2023-04-03T06:09:54;99846.56;;;0.98;67.60
75895;BME280;64573;50.328;15.014;2023-04-03T06:12:21;99849.94;;;1.27;67.90
75895;BME280;64573;50.328;15.014;2023-04-03T06:14:46;99850.97;;;1.12;67.53
75895;BME280;64573;50.328;15.014;2023-04-03T06:17:12;99856.97;;;1.14;67.80
75895;BME280;64573;50.328;15.014;2023-04-03T06:19:38;99867.31;;;1.31;67.11
75895;BME280;64573;50.328;15.014;2023-04-03T06:22:04;99871.81;;;1.29;66.54
75895;BME280;64573;50.328;15.014;2023-04-03T06:24:30;99858.47;;;1.58;65.35
75895;BME280;64573;50.328;15.014;2023-04-03T06:26:56;99864.66;;;1.71;64.67
75895;BME280;64573;50.328;15.014;2023-04-03T06:29:21;99858.28;;;1.61;65.61
75895;BME280;64573;50.328;15.014;2023-04-03T06:31:48;99860.97;;;2.12;63.28
75895;BME280;64573;50.328;15.014;2023-04-03T06:34:14;99856.56;;;1.47;63.88
75895;BME280;64573;50.328;15.014;2023-04-03T06:36:40;99867.50;;;2.44;60.34
75895;BME280;64573;50.328;15.014;2023-04-03T06:39:06;99866.03;;;2.15;61.63
75895;BME280;64573;50.328;15.014;2023-04-03T06:41:32;99864.84;;;1.81;60.81
75895;BME280;64573;50.328;15.014;2023-04-03T06:43:58;99884.22;;;1.69;61.45
75895;BME280;64573;50.328;15.014;2023-04-03T06:46:25;99875.13;;;1.85;61.14
75895;BME280;64573;50.328;15.014;2023-04-03T06:48:51;99871.25;;;2.04;60.80
75895;BME280;64573;50.328;15.014;2023-04-03T06:51:22;99888.47;;;1.84;60.41
75895;BME280;64573;50.328;15.014;2023-04-03T06:53:49;99877.28;;;2.06;61.34
75895;BME280;64573;50.328;15.014;2023-04-03T06:56:16;99878.84;;;2.08;59.81
75895;BME280;64573;50.328;15.014;2023-04-03T06:58:42;99876.09;;;2.35;60.09
75895;BME280;64573;50.328;15.014;2023-04-03T07:01:13;99890.38;;;2.45;60.50
75895;BME280;64573;50.328;15.014;2023-04-03T07:03:39;99891.03;;;2.24;62.34
75895;BME280;64573;50.328;15.014;2023-04-03T07:06:05;99886.13;;;2.68;60.42
75895;BME280;64573;50.328;15.014;2023-04-03T07:08:32;99878.22;;;2.43;59.60
75895;BME280;64573;50.328;15.014;2023-04-03T07:10:58;99879.78;;;2.58;59.00
75895;BME280;64573;50.328;15.014;2023-04-03T07:13:23;99888.91;;;2.41;57.21
75895;BME280;64573;50.328;15.014;2023-04-03T07:15:49;99879.81;;;2.20;57.68
75895;BME280;64573;50.328;15.014;2023-04-03T07:18:15;99890.41;;;2.33;57.37
75895;BME280;64573;50.328;15.014;2023-04-03T07:20:42;99877.03;;;2.96;58.22
75895;BME280;64573;50.328;15.014;2023-04-03T07:23:08;99881.19;;;2.26;55.85
75895;BME280;64573;50.328;15.014;2023-04-03T07:25:34;99891.59;;;2.78;55.40
75895;BME280;64573;50.328;15.014;2023-04-03T07:28:00;99887.88;;;2.81;56.50
75895;BME280;64573;50.328;15.014;2023-04-03T07:30:25;99898.91;;;2.74;55.19
75895;BME280;64573;50.328;15.014;2023-04-03T07:32:51;99904.63;;;3.18;55.83
75895;BME280;64573;50.328;15.014;2023-04-03T07:35:17;99899.81;;;2.37;55.46
75895;BME280;64573;50.328;15.014;2023-04-03T07:37:42;99889.97;;;2.88;55.08
75895;BME280;64573;50.328;15.014;2023-04-03T07:40:08;99909.25;;;2.28;54.90
75895;BME280;64573;50.328;15.014;2023-04-03T07:42:34;99913.38;;;2.32;53.44
75895;BME280;64573;50.328;15.014;2023-04-03T07:45:00;99901.09;;;2.18;53.59
75895;BME280;64573;50.328;15.014;2023-04-03T07:47:27;99893.56;;;3.00;52.82
75895;BME280;64573;50.328;15.014;2023-04-03T07:49:52;99903.66;;;2.82;52.30
75895;BME280;64573;50.328;15.014;2023-04-03T07:52:18;99888.88;;;2.67;52.61
75895;BME280;64573;50.328;15.014;2023-04-03T07:54:43;99901.19;;;2.55;51.54
75895;BME280;64573;50.328;15.014;2023-04-03T07:57:08;99892.53;;;2.90;52.00
75895;BME280;64573;50.328;15.014;2023-04-03T07:59:34;99896.47;;;2.84;53.65
75895;BME280;64573;50.328;15.014;2023-04-03T08:01:59;99901.50;;;3.00;52.57
75895;BME280;64573;50.328;15.014;2023-04-03T08:04:25;99886.75;;;3.09;51.01
75895;BME280;64573;50.328;15.014;2023-04-03T08:06:51;99897.59;;;3.06;50.72
75895;BME280;64573;50.328;15.014;2023-04-03T08:09:17;99885.75;;;2.86;50.88
75895;BME280;64573;50.328;15.014;2023-04-03T08:11:44;99889.09;;;3.00;51.30
75895;BME280;64573;50.328;15.014;2023-04-03T08:14:09;99894.31;;;2.14;51.50
75895;BME280;64573;50.328;15.014;2023-04-03T08:16:40;99883.53;;;2.80;50.01
75895;BME280;64573;50.328;15.014;2023-04-03T08:19:07;99886.75;;;1.70;50.39
75895;BME280;64573;50.328;15.014;2023-04-03T08:21:33;99879.28;;;2.28;49.49
75895;BME280;64573;50.328;15.014;2023-04-03T08:23:58;99890.81;;;2.14;50.85
75895;BME280;64573;50.328;15.014;2023-04-03T08:26:23;99896.78;;;2.80;48.36
75895;BME280;64573;50.328;15.014;2023-04-03T08:28:49;99893.34;;;2.54;50.11
75895;BME280;64573;50.328;15.014;2023-04-03T08:31:17;99907.03;;;2.47;50.19
75895;BME280;64573;50.328;15.014;2023-04-03T08:33:44;99906.09;;;2.98;46.99
75895;BME280;64573;50.328;15.014;2023-04-03T08:36:27;99884.53;;;2.66;47.32
75895;BME280;64573;50.328;15.014;2023-04-03T08:38:54;99887.09;;;2.55;48.70
75895;BME280;64573;50.328;15.014;2023-04-03T08:44:39;99894.06;;;2.68;47.30
75895;BME280;64573;50.328;15.014;2023-04-03T08:50:20;99888.78;;;3.29;45.90
75895;BME280;64573;50.328;15.014;2023-04-03T08:52:52;99911.06;;;3.50;43.12
75895;BME280;64573;50.328;15.014;2023-04-03T08:55:40;99909.09;;;4.00;43.96
75895;BME280;64573;50.328;15.014;2023-04-03T08:58:21;99900.47;;;3.26;45.83
75895;BME280;64573;50.328;15.014;2023-04-03T09:00:50;99901.59;;;3.59;46.69
75895;BME280;64573;50.328;15.014;2023-04-03T09:03:19;99909.06;;;2.93;44.81
75895;BME280;64573;50.328;15.014;2023-04-03T09:05:55;99901.06;;;3.78;41.83
75895;BME280;64573;50.328;15.014;2023-04-03T09:11:13;99873.69;;;3.53;44.15
75895;BME280;64573;50.328;15.014;2023-04-03T09:13:53;99896.28;;;3.59;42.66
75895;BME280;64573;50.328;15.014;2023-04-03T09:22:24;99908.63;;;4.06;43.99
75895;BME280;64573;50.328;15.014;2023-04-03T09:24:57;99900.59;;;4.53;41.21
75895;BME280;64573;50.328;15.014;2023-04-03T09:27:24;99911.81;;;4.90;42.82
75895;BME280;64573;50.328;15.014;2023-04-03T09:29:53;99901.88;;;4.13;40.63
75895;BME280;64573;50.328;15.014;2023-04-03T09:32:31;99917.19;;;4.10;42.82
75895;BME280;64573;50.328;15.014;2023-04-03T09:35:03;99908.75;;;4.27;43.37
75895;BME280;64573;50.328;15.014;2023-04-03T09:37:41;99915.06;;;5.16;43.88
75895;BME280;64573;50.328;15.014;2023-04-03T09:43:01;99914.41;;;4.00;41.06
75895;BME280;64573;50.328;15.014;2023-04-03T09:48:06;99913.00;;;4.41;39.21
75895;BME280;64573;50.328;15.014;2023-04-03T09:50:32;99926.19;;;3.96;39.03
75895;BME280;64573;50.328;15.014;2023-04-03T09:53:04;99940.03;;;4.24;39.44
75895;BME280;64573;50.328;15.014;2023-04-03T09:55:30;99912.03;;;5.09;40.80
75895;BME280;64573;50.328;15.014;2023-04-03T09:58:04;99932.09;;;4.91;39.41
75895;BME280;64573;50.328;15.014;2023-04-03T10:00:37;99935.00;;;4.43;39.11
75895;BME280;64573;50.328;15.014;2023-04-03T10:03:06;99912.31;;;4.61;40.12
75895;BME280;64573;50.328;15.014;2023-04-03T10:05:48;99908.31;;;4.89;41.27
75895;BME280;64573;50.328;15.014;2023-04-03T10:10:45;99922.84;;;4.05;39.63
75895;BME280;64573;50.328;15.014;2023-04-03T10:13:17;99919.53;;;4.48;38.02
75895;BME280;64573;50.328;15.014;2023-04-03T10:15:48;99901.44;;;4.87;39.48
75895;BME280;64573;50.328;15.014;2023-04-03T10:26:42;99923.38;;;4.22;37.86
75895;BME280;64573;50.328;15.014;2023-04-03T10:32:49;99910.44;;;5.18;38.34
75895;BME280;64573;50.328;15.014;2023-04-03T10:38:08;99897.19;;;3.82;42.60
75895;BME280;64573;50.328;15.014;2023-04-03T10:43:09;99905.13;;;5.61;40.12
75895;BME280;64573;50.328;15.014;2023-04-03T10:45:51;99905.22;;;4.04;42.51
75895;BME280;64573;50.328;15.014;2023-04-03T10:51:38;99912.31;;;4.61;42.24
75895;BME280;64573;50.328;15.014;2023-04-03T10:54:26;99893.09;;;4.80;40.15
75895;BME280;64573;50.328;15.014;2023-04-03T10:56:56;99895.63;;;3.79;41.79
75895;BME280;64573;50.328;15.014;2023-04-03T10:59:32;99895.28;;;3.49;43.53
75895;BME280;64573;50.328;15.014;2023-04-03T11:02:05;99899.00;;;3.46;44.08
75895;BME280;64573;50.328;15.014;2023-04-03T11:04:35;99896.47;;;4.49;40.31
75895;BME280;64573;50.328;15.014;2023-04-03T11:07:22;99899.50;;;4.89;41.24
75895;BME280;64573;50.328;15.014;2023-04-03T11:09:52;99892.25;;;5.45;38.16
75895;BME280;64573;50.328;15.014;2023-04-03T11:12:41;99891.41;;;5.45;41.75
75895;BME280;64573;50.328;15.014;2023-04-03T11:15:13;99893.53;;;5.83;38.38
75895;BME280;64573;50.328;15.014;2023-04-03T11:17:45;99882.84;;;4.64;39.81
75895;BME280;64573;50.328;15.014;2023-04-03T11:20:18;99893.81;;;4.37;43.71
75895;BME280;64573;50.328;15.014;2023-04-03T11:22:50;99873.75;;;4.89;39.67
75895;BME280;64573;50.328;15.014;2023-04-03T11:25:21;99885.63;;;4.52;39.27
75895;BME280;64573;50.328;15.014;2023-04-03T11:27:56;99903.47;;;5.81;38.91
75895;BME280;64573;50.328;15.014;2023-04-03T11:33:25;99879.66;;;5.47;39.90
75895;BME280;64573;50.328;15.014;2023-04-03T11:35:58;99892.78;;;6.13;42.03
75895;BME280;64573;50.328;15.014;2023-04-03T11:38:29;99880.41;;;4.84;43.86
75895;BME280;64573;50.328;15.014;2023-04-03T11:40:57;99895.38;;;4.40;46.62
75895;BME280;64573;50.328;15.014;2023-04-03T11:43:29;99916.00;;;4.25;44.92
75895;BME280;64573;50.328;15.014;2023-04-03T11:46:03;99888.38;;;4.61;42.57
75895;BME280;64573;50.328;15.014;2023-04-03T11:51:00;99884.41;;;5.97;42.35
75895;BME280;64573;50.328;15.014;2023-04-03T11:53:36;99894.63;;;5.05;45.08
75895;BME280;64573;50.328;15.014;2023-04-03T11:56:06;99880.78;;;4.46;45.37
75895;BME280;64573;50.328;15.014;2023-04-03T12:04:11;99885.03;;;4.59;43.34
75895;BME280;64573;50.328;15.014;2023-04-03T12:09:22;99885.00;;;4.48;44.54
75895;BME280;64573;50.328;15.014;2023-04-03T12:11:48;99878.81;;;4.03;43.88
75895;BME280;64573;50.328;15.014;2023-04-03T12:14:15;99866.25;;;3.94;43.46
75895;BME280;64573;50.328;15.014;2023-04-03T12:16:42;99894.09;;;3.88;45.54
75895;BME280;64573;50.328;15.014;2023-04-03T12:29:29;99869.28;;;4.00;44.67
75895;BME280;64573;50.328;15.014;2023-04-03T12:48:39;99861.19;;;5.35;42.07
75895;BME280;64573;50.328;15.014;2023-04-03T12:51:15;99875.13;;;6.12;38.79
75895;BME280;64573;50.328;15.014;2023-04-03T12:53:43;99872.03;;;5.11;39.21
75895;BME280;64573;50.328;15.014;2023-04-03T12:56:28;99861.00;;;4.38;46.16
75895;BME280;64573;50.328;15.014;2023-04-03T12:58:56;99874.53;;;3.89;45.55
75895;BME280;64573;50.328;15.014;2023-04-03T13:01:25;99865.41;;;4.04;45.50
75895;BME280;64573;50.328;15.014;2023-04-03T13:03:54;99884.63;;;4.08;45.80
75895;BME280;64573;50.328;15.014;2023-04-03T13:06:27;99868.81;;;4.40;45.16
75895;BME280;64573;50.328;15.014;2023-04-03T13:08:57;99870.72;;;3.93;45.18
75895;BME280;64573;50.328;15.014;2023-04-03T13:11:30;99868.91;;;3.58;45.63
75895;BME280;64573;50.328;15.014;2023-04-03T13:14:14;99877.63;;;4.40;45.37
75895;BME280;64573;50.328;15.014;2023-04-03T13:16:40;99859.59;;;6.48;43.40
75895;BME280;64573;50.328;15.014;2023-04-03T13:19:15;99853.38;;;4.45;42.14
75895;BME280;64573;50.328;15.014;2023-04-03T13:21:41;99858.56;;;4.13;43.91
75895;BME280;64573;50.328;15.014;2023-04-03T13:24:08;99875.47;;;4.23;42.58
75895;BME280;64573;50.328;15.014;2023-04-03T13:26:34;99859.63;;;3.99;43.96
75895;BME280;64573;50.328;15.014;2023-04-03T13:29:05;99866.88;;;4.20;44.57
75895;BME280;64573;50.328;15.014;2023-04-03T13:31:33;99869.31;;;4.34;44.36
75895;BME280;64573;50.328;15.014;2023-04-03T13:34:07;99858.78;;;4.10;43.46
75895;BME280;64573;50.328;15.014;2023-04-03T13:36:38;99863.94;;;3.89;45.20
75895;BME280;64573;50.328;15.014;2023-04-03T13:41:44;99855.28;;;3.28;45.79
75895;BME280;64573;50.328;15.014;2023-04-03T13:49:34;99858.16;;;6.13;43.91
75895;BME280;64573;50.328;15.014;2023-04-03T13:54:46;99864.41;;;5.17;40.96
75895;BME280;64573;50.328;15.014;2023-04-03T13:57:14;99846.78;;;3.82;45.50
75895;BME280;64573;50.328;15.014;2023-04-03T13:59:41;99853.31;;;3.19;43.37
75895;BME280;64573;50.328;15.014;2023-04-03T14:02:18;99849.72;;;3.20;45.16
75895;BME280;64573;50.328;15.014;2023-04-03T14:07:09;99864.59;;;3.10;45.78
75895;BME280;64573;50.328;15.014;2023-04-03T14:09:34;99842.47;;;4.70;46.21
75895;BME280;64573;50.328;15.014;2023-04-03T14:12:07;99843.94;;;4.63;40.73
75895;BME280;64573;50.328;15.014;2023-04-03T14:14:35;99866.41;;;5.36;41.40
75895;BME280;64573;50.328;15.014;2023-04-03T14:17:10;99834.44;;;5.68;39.37
75895;BME280;64573;50.328;15.014;2023-04-03T14:19:38;99835.50;;;4.25;44.11
75895;BME280;64573;50.328;15.014;2023-04-03T14:22:14;99826.94;;;3.52;43.81
75895;BME280;64573;50.328;15.014;2023-04-03T14:24:40;99857.13;;;3.63;46.09
75895;BME280;64573;50.328;15.014;2023-04-03T14:27:21;99876.44;;;3.41;45.51
75895;BME280;64573;50.328;15.014;2023-04-03T14:29:48;99853.38;;;3.65;45.55
75895;BME280;64573;50.328;15.014;2023-04-03T14:32:15;99847.88;;;3.44;44.97
75895;BME280;64573;50.328;15.014;2023-04-03T14:34:41;99841.47;;;3.36;47.02
75895;BME280;64573;50.328;15.014;2023-04-03T14:37:17;99836.72;;;4.21;46.37
75895;BME280;64573;50.328;15.014;2023-04-03T14:39:44;99829.84;;;5.06;43.18
75895;BME280;64573;50.328;15.014;2023-04-03T14:42:21;99830.31;;;4.34;43.72
75895;BME280;64573;50.328;15.014;2023-04-03T14:44:47;99834.16;;;4.19;46.08
75895;BME280;64573;50.328;15.014;2023-04-03T14:47:15;99844.72;;;3.74;47.02
75895;BME280;64573;50.328;15.014;2023-04-03T14:49:42;99829.31;;;3.44;46.89